createdAt,value
2022-11-27T00:00:13.119Z,3.22
2022-11-27T00:02:42.215Z,2.92
2022-11-27T00:05:10.583Z,2.75
2022-11-27T00:07:38.344Z,3.80
2022-11-27T00:10:07.482Z,3.25
2022-11-27T00:12:35.694Z,2.85
2022-11-27T00:15:05.078Z,2.85
2022-11-27T00:17:32.788Z,3.15
2022-11-27T00:20:01.874Z,2.45
2022-11-27T00:22:29.601Z,2.83
2022-11-27T00:24:57.296Z,2.75
2022-11-27T00:27:24.990Z,3.45
2022-11-27T00:29:52.740Z,3.67
2022-11-27T00:32:20.401Z,3.60
2022-11-27T00:34:48.140Z,2.88
2022-11-27T00:37:17.163Z,3.33
2022-11-27T00:39:44.857Z,2.97
2022-11-27T00:42:12.524Z,2.90
2022-11-27T00:44:40.485Z,3.25
2022-11-27T00:47:08.354Z,3.65
2022-11-27T00:49:36.104Z,3.78
2022-11-27T00:52:03.819Z,3.60
2022-11-27T00:54:33.006Z,3.33
2022-11-27T00:57:00.798Z,2.80
2022-11-27T00:59:28.530Z,3.28
2022-11-27T01:01:56.282Z,3.50
2022-11-27T01:04:24.026Z,2.92
2022-11-27T01:06:51.745Z,2.70
2022-11-27T01:09:19.884Z,3.08
2022-11-27T01:11:48.860Z,2.92
2022-11-27T01:14:18.570Z,3.20
2022-11-27T01:16:46.907Z,2.88
2022-11-27T01:19:15.594Z,3.15
2022-11-27T01:21:43.334Z,3.03
2022-11-27T01:24:13.192Z,2.75
2022-11-27T01:26:41.194Z,3.70
2022-11-27T01:29:10.659Z,3.35
2022-11-27T01:31:38.690Z,2.85
2022-11-27T01:34:08.183Z,3.03
2022-11-27T01:36:36.933Z,2.97
2022-11-27T01:39:05.740Z,4.22
2022-11-27T01:41:35.500Z,3.13
2022-11-27T01:44:05.580Z,3.20
2022-11-27T01:46:38.304Z,3.17
2022-11-27T01:49:24.893Z,2.90
2022-11-27T01:51:57.220Z,3.88
2022-11-27T01:54:28.146Z,3.53
2022-11-27T01:56:59.094Z,3.90
2022-11-27T01:59:27.068Z,3.55
2022-11-27T02:01:56.258Z,3.80
2022-11-27T02:04:24.037Z,3.75
2022-11-27T02:06:51.901Z,3.80
2022-11-27T02:09:19.588Z,3.75
2022-11-27T02:11:54.982Z,4.68
2022-11-27T02:14:27.976Z,2.92
2022-11-27T02:17:05.530Z,3.92
2022-11-27T02:19:45.194Z,3.38
2022-11-27T02:22:29.894Z,4.10
2022-11-27T02:25:08.367Z,3.80
2022-11-27T02:27:58.402Z,3.35
2022-11-27T02:30:28.916Z,3.33
2022-11-27T02:32:59.373Z,2.92
2022-11-27T02:35:32.810Z,3.90
2022-11-27T02:38:03.989Z,3.45
2022-11-27T02:40:36.042Z,3.30
2022-11-27T02:43:08.890Z,3.72
2022-11-27T02:45:41.630Z,3.60
2022-11-27T02:48:11.221Z,3.55
2022-11-27T02:50:42.603Z,3.38
2022-11-27T02:53:14.413Z,3.70
2022-11-27T02:55:46.001Z,3.60
2022-11-27T02:58:16.948Z,3.42
2022-11-27T03:00:48.314Z,4.25
2022-11-27T03:03:19.739Z,3.75
2022-11-27T03:05:51.781Z,3.60
2022-11-27T03:08:26.637Z,3.50
2022-11-27T03:11:02.608Z,3.42
2022-11-27T03:13:33.700Z,3.15
2022-11-27T03:16:11.245Z,4.00
2022-11-27T03:18:43.403Z,3.15
2022-11-27T03:21:18.889Z,3.55
2022-11-27T03:23:46.711Z,4.45
2022-11-27T03:26:14.385Z,3.15
2022-11-27T03:28:45.252Z,3.17
2022-11-27T03:31:14.743Z,3.28
2022-11-27T03:33:42.840Z,2.50
2022-11-27T03:36:14.207Z,2.97
2022-11-27T03:38:42.543Z,3.25
2022-11-27T03:41:19.616Z,3.80
2022-11-27T03:43:54.391Z,3.58
2022-11-27T03:46:32.918Z,3.03
2022-11-27T03:49:09.500Z,3.13
2022-11-27T03:51:43.523Z,3.00
2022-11-27T03:54:18.333Z,2.90
2022-11-27T03:56:54.237Z,3.03
2022-11-27T03:59:26.828Z,3.50
2022-11-27T04:01:58.445Z,3.17
2022-11-27T04:04:26.499Z,3.10
2022-11-27T04:06:54.235Z,3.50
2022-11-27T04:09:21.940Z,2.75
2022-11-27T04:11:49.617Z,3.45
2022-11-27T04:14:17.288Z,2.97
2022-11-27T04:16:44.958Z,3.00
2022-11-27T04:19:14.033Z,3.47
2022-11-27T04:21:41.723Z,3.08
2022-11-27T04:24:09.504Z,3.90
2022-11-27T04:26:37.159Z,2.70
2022-11-27T04:29:04.893Z,3.08
2022-11-27T04:31:32.660Z,3.03
2022-11-27T04:34:00.379Z,2.97
2022-11-27T04:36:29.412Z,2.85
2022-11-27T04:38:57.100Z,3.17
2022-11-27T04:41:24.750Z,2.90
2022-11-27T04:43:52.474Z,2.45
2022-11-27T04:46:20.448Z,2.72
2022-11-27T04:48:48.206Z,2.95
2022-11-27T04:51:15.853Z,2.70
2022-11-27T04:53:44.868Z,3.85
2022-11-27T04:56:12.562Z,3.28
2022-11-27T04:58:40.255Z,2.80
2022-11-27T05:01:09.307Z,2.80
2022-11-27T05:03:37.191Z,2.72
2022-11-27T05:06:05.229Z,2.92
2022-11-27T05:08:33.581Z,2.85
2022-11-27T05:11:05.466Z,2.40
2022-11-27T05:13:33.181Z,2.85
2022-11-27T05:16:00.995Z,3.38
2022-11-27T05:18:28.987Z,2.65
2022-11-27T05:20:58.294Z,2.50
2022-11-27T05:23:26.457Z,2.72
2022-11-27T05:25:54.609Z,2.60
2022-11-27T05:28:26.919Z,2.80
2022-11-27T05:30:55.167Z,2.55
2022-11-27T05:33:22.891Z,2.67
2022-11-27T05:35:50.556Z,3.17
2022-11-27T05:38:18.234Z,2.47
2022-11-27T05:40:45.869Z,2.70
2022-11-27T05:43:13.509Z,3.22
2022-11-27T05:45:42.522Z,3.50
2022-11-27T05:48:10.237Z,2.42
2022-11-27T05:50:37.976Z,2.40
2022-11-27T05:53:05.763Z,2.97
2022-11-27T05:55:33.524Z,3.13
2022-11-27T05:58:01.215Z,2.53
2022-11-27T06:00:28.998Z,2.63
2022-11-27T06:02:58.117Z,3.22
2022-11-27T06:05:25.856Z,2.50
2022-11-27T06:07:53.564Z,2.42
2022-11-27T06:10:21.286Z,2.33
2022-11-27T06:12:48.925Z,2.30
2022-11-27T06:15:16.653Z,2.35
2022-11-27T06:17:44.306Z,2.47
2022-11-27T06:20:13.767Z,2.65
2022-11-27T06:22:41.430Z,2.83
2022-11-27T06:25:10.007Z,2.10
2022-11-27T06:27:38.030Z,3.00
2022-11-27T06:30:07.140Z,2.25
2022-11-27T06:32:34.853Z,2.13
2022-11-27T06:35:02.650Z,2.33
2022-11-27T06:37:31.957Z,2.05
2022-11-27T06:39:59.810Z,2.40
2022-11-27T06:42:29.921Z,2.42
2022-11-27T06:44:57.650Z,2.20
2022-11-27T06:47:25.359Z,2.40
2022-11-27T06:49:53.064Z,2.20
2022-11-27T06:52:20.825Z,1.73
2022-11-27T06:54:49.885Z,2.33
2022-11-27T06:57:17.591Z,2.03
2022-11-27T06:59:45.258Z,1.98
2022-11-27T07:02:15.109Z,2.42
2022-11-27T07:04:43.013Z,1.95
2022-11-27T07:07:10.854Z,2.03
2022-11-27T07:09:38.505Z,2.50
2022-11-27T07:12:08.244Z,2.40
2022-11-27T07:14:35.946Z,1.90
2022-11-27T07:17:03.671Z,2.83
2022-11-27T07:19:31.328Z,2.40
2022-11-27T07:21:59.058Z,2.00
2022-11-27T07:24:26.761Z,2.25
2022-11-27T07:26:54.500Z,2.10
2022-11-27T07:29:23.576Z,2.50
2022-11-27T07:31:51.825Z,2.20
2022-11-27T07:34:21.648Z,2.08
2022-11-27T07:36:49.796Z,2.53
2022-11-27T07:39:28.744Z,2.65
2022-11-27T07:42:36.399Z,2.00
2022-11-27T07:44:54.560Z,2.05
2022-11-27T07:47:22.270Z,2.30
2022-11-27T07:50:00.365Z,2.25
2022-11-27T07:52:28.781Z,1.98
2022-11-27T07:54:56.436Z,2.53
2022-11-27T07:57:24.154Z,2.42
2022-11-27T07:59:51.875Z,2.83
2022-11-27T08:02:21.109Z,2.47
2022-11-27T08:04:49.010Z,2.67
2022-11-27T08:07:16.812Z,2.90
2022-11-27T08:09:44.522Z,2.35
2022-11-27T08:12:12.201Z,2.47
2022-11-27T08:14:40.111Z,2.60
2022-11-27T08:17:07.962Z,2.30
2022-11-27T08:19:36.968Z,2.70
2022-11-27T08:22:04.789Z,2.72
2022-11-27T08:24:32.625Z,2.30
2022-11-27T08:27:00.364Z,3.22
2022-11-27T08:29:33.720Z,2.72
2022-11-27T08:32:01.877Z,2.63
2022-11-27T08:34:29.584Z,2.78
2022-11-27T08:36:58.618Z,2.95
2022-11-27T08:39:27.408Z,2.70
2022-11-27T08:41:55.390Z,2.78
2022-11-27T08:44:23.087Z,2.63
2022-11-27T08:46:50.733Z,3.22
2022-11-27T08:49:18.446Z,3.22
2022-11-27T08:51:46.127Z,3.10
2022-11-27T08:54:15.163Z,2.67
2022-11-27T08:56:43.030Z,3.25
2022-11-27T08:59:10.748Z,2.85
2022-11-27T09:01:38.527Z,3.00
2022-11-27T09:04:06.590Z,3.35
2022-11-27T09:06:34.827Z,2.50
2022-11-27T09:09:04.845Z,3.08
2022-11-27T09:11:35.323Z,3.47
2022-11-27T09:14:04.510Z,3.03
2022-11-27T09:16:32.402Z,3.25
2022-11-27T09:19:00.364Z,2.90
2022-11-27T09:21:31.380Z,2.92
2022-11-27T09:24:00.329Z,2.70
2022-11-27T09:26:29.477Z,3.00
2022-11-27T09:28:59.948Z,3.05
2022-11-27T09:31:27.797Z,3.00
2022-11-27T09:33:55.573Z,3.17
2022-11-27T09:36:25.027Z,3.35
2022-11-27T09:38:53.301Z,2.88
2022-11-27T09:41:39.997Z,2.85
2022-11-27T09:44:24.491Z,2.63
2022-11-27T09:46:54.335Z,2.83
2022-11-27T09:49:28.415Z,3.10
2022-11-27T09:52:02.684Z,3.08
2022-11-27T09:54:37.136Z,2.97
2022-11-27T09:57:06.758Z,2.55
2022-11-27T09:59:42.351Z,2.88
2022-11-27T10:02:18.515Z,2.95
2022-11-27T10:05:12.137Z,2.80
2022-11-27T10:07:44.121Z,2.97
2022-11-27T10:10:27.795Z,3.15
2022-11-27T10:13:06.049Z,2.75
2022-11-27T10:15:43.246Z,2.60
2022-11-27T10:18:17.347Z,2.97
2022-11-27T10:20:49.827Z,2.47
2022-11-27T10:23:25.497Z,3.33
2022-11-27T10:26:00.000Z,3.40
2022-11-27T10:28:36.546Z,3.20
2022-11-27T10:31:13.055Z,3.50
2022-11-27T10:33:46.247Z,3.50
2022-11-27T10:36:18.964Z,3.70
2022-11-27T10:38:49.087Z,3.17
2022-11-27T10:44:24.401Z,3.47
2022-11-27T10:46:59.162Z,4.32
2022-11-27T10:49:26.813Z,3.40
2022-11-27T10:51:54.501Z,3.50
2022-11-27T10:54:26.761Z,3.10
2022-11-27T10:57:10.409Z,3.00
2022-11-27T10:59:44.306Z,3.47
2022-11-27T11:02:30.249Z,3.15
2022-11-27T11:05:24.132Z,3.85
2022-11-27T11:07:56.853Z,3.55
2022-11-27T11:10:29.080Z,4.07
2022-11-27T11:13:17.459Z,3.47
2022-11-27T11:15:51.885Z,3.40
2022-11-27T11:18:23.416Z,3.70
2022-11-27T11:20:53.929Z,3.53
2022-11-27T11:23:25.904Z,4.22
2022-11-27T11:25:56.643Z,3.72
2022-11-27T11:28:25.630Z,3.47
2022-11-27T11:30:56.398Z,3.70
2022-11-27T11:33:26.870Z,3.50
2022-11-27T11:35:56.473Z,3.45
2022-11-27T11:38:31.512Z,3.72
2022-11-27T11:41:03.410Z,4.20
2022-11-27T11:43:33.634Z,3.53
2022-11-27T11:46:08.413Z,3.92
2022-11-27T11:48:38.889Z,3.50
2022-11-27T11:51:14.587Z,3.67
2022-11-27T11:53:45.487Z,4.07
2022-11-27T11:56:26.712Z,3.15
2022-11-27T11:58:59.009Z,3.40
2022-11-27T12:01:56.632Z,3.33
2022-11-27T12:04:44.617Z,3.53
2022-11-27T12:07:28.499Z,3.33
2022-11-27T12:10:04.662Z,3.60
2022-11-27T12:12:48.975Z,3.90
2022-11-27T12:15:26.960Z,3.78
2022-11-27T12:18:01.814Z,3.22
2022-11-27T12:20:39.675Z,3.50
2022-11-27T12:23:34.995Z,3.97
2022-11-27T12:26:15.571Z,3.60
2022-11-27T12:29:20.732Z,3.95
2022-11-27T12:32:15.689Z,3.80
2022-11-27T12:34:56.614Z,3.47
2022-11-27T12:37:40.421Z,5.05
2022-11-27T12:40:24.879Z,3.88
2022-11-27T12:43:00.829Z,3.17
2022-11-27T12:45:33.455Z,3.73
2022-11-27T12:48:07.491Z,3.90
2022-11-27T12:50:41.333Z,3.97
2022-11-27T12:53:24.412Z,4.03
2022-11-27T12:56:04.524Z,4.53
2022-11-27T12:58:38.317Z,3.67
2022-11-27T13:01:11.160Z,4.63
2022-11-27T13:03:45.260Z,4.35
2022-11-27T13:06:15.636Z,3.95
2022-11-27T13:08:54.503Z,4.05
2022-11-27T13:11:29.197Z,4.32
2022-11-27T13:14:04.224Z,3.85
2022-11-27T13:16:36.568Z,4.10
2022-11-27T13:19:12.071Z,4.20
2022-11-27T13:21:40.741Z,4.25
2022-11-27T13:24:13.622Z,3.53
2022-11-27T13:26:45.081Z,4.40
2022-11-27T13:29:20.440Z,4.70
2022-11-27T13:31:53.663Z,3.80
2022-11-27T13:34:24.149Z,4.38
2022-11-27T13:36:59.171Z,4.75
2022-11-27T13:39:31.060Z,4.70
2022-11-27T13:42:05.981Z,4.45
2022-11-27T13:44:37.150Z,4.05
2022-11-27T13:47:13.007Z,4.85
2022-11-27T13:49:41.933Z,5.80
2022-11-27T13:52:13.566Z,5.07
2022-11-27T13:54:53.642Z,5.43
2022-11-27T13:57:21.936Z,4.40
2022-11-27T13:59:58.514Z,4.55
2022-11-27T14:02:26.827Z,4.75
2022-11-27T14:04:56.653Z,3.92
2022-11-27T14:07:35.533Z,4.80
2022-11-27T14:10:12.764Z,5.18
2022-11-27T14:12:42.487Z,4.60
2022-11-27T14:15:21.571Z,4.70
2022-11-27T14:17:51.858Z,4.70
2022-11-27T14:20:29.625Z,5.20
2022-11-27T14:23:14.475Z,4.70
2022-11-27T14:25:43.613Z,5.60
2022-11-27T14:28:16.619Z,4.75
2022-11-27T14:30:48.100Z,5.00
2022-11-27T14:33:20.761Z,4.60
2022-11-27T14:35:52.485Z,5.10
2022-11-27T14:38:20.702Z,4.57
2022-11-27T14:40:51.669Z,4.68
2022-11-27T14:43:23.792Z,4.53
2022-11-27T14:45:53.704Z,4.60
2022-11-27T14:48:24.117Z,5.28
2022-11-27T14:50:53.503Z,5.55
2022-11-27T14:53:23.538Z,5.18
2022-11-27T14:55:56.466Z,5.18
2022-11-27T14:58:27.737Z,4.78
2022-11-27T15:00:59.035Z,5.13
2022-11-27T15:03:27.776Z,4.97
2022-11-27T15:05:59.038Z,4.53
2022-11-27T15:08:27.821Z,4.93
2022-11-27T15:14:37.996Z,5.07
2022-11-27T15:17:06.204Z,5.40
2022-11-27T15:19:38.187Z,4.63
2022-11-27T15:22:06.304Z,4.30
2022-11-27T15:24:36.078Z,4.55
2022-11-27T15:27:19.134Z,5.03
2022-11-27T15:30:02.842Z,4.53
2022-11-27T15:32:46.913Z,4.50
2022-11-27T15:35:16.065Z,5.45
2022-11-27T15:37:44.037Z,4.45
2022-11-27T15:40:33.390Z,4.35
2022-11-27T15:43:01.246Z,4.55
2022-11-27T15:45:32.742Z,4.55
2022-11-27T15:48:02.329Z,4.40
2022-11-27T15:50:32.767Z,4.22
2022-11-27T15:53:01.415Z,4.53
2022-11-27T15:55:29.375Z,4.70
2022-11-27T15:57:57.046Z,3.97
2022-11-27T16:00:25.989Z,5.18
2022-11-27T16:02:55.818Z,4.70
2022-11-27T16:05:23.553Z,5.03
2022-11-27T16:07:54.940Z,4.85
2022-11-27T16:10:25.652Z,5.43
2022-11-27T16:12:55.234Z,5.35
2022-11-27T16:15:25.756Z,4.97
2022-11-27T16:17:57.835Z,4.60
2022-11-27T16:20:26.055Z,5.43
2022-11-27T16:22:54.009Z,4.93
2022-11-27T16:25:21.836Z,5.50
2022-11-27T16:27:49.582Z,4.95
2022-11-27T16:30:20.019Z,4.93
2022-11-27T16:32:47.725Z,4.68
2022-11-27T16:35:17.377Z,4.53
2022-11-27T16:37:45.013Z,4.55
2022-11-27T16:40:14.113Z,5.03
2022-11-27T16:42:41.815Z,5.25
2022-11-27T16:45:10.353Z,4.82
2022-11-27T16:47:37.994Z,5.25
2022-11-27T16:50:06.940Z,5.68
2022-11-27T16:52:35.995Z,4.93
2022-11-27T16:55:03.681Z,5.28
2022-11-27T16:57:31.353Z,5.60
2022-11-27T16:59:59.054Z,5.15
2022-11-27T17:02:28.770Z,5.30
2022-11-27T17:04:56.594Z,4.85
2022-11-27T17:07:24.301Z,5.18
2022-11-27T17:09:53.382Z,5.25
2022-11-27T17:12:21.024Z,4.95
2022-11-27T17:14:48.754Z,5.15
2022-11-27T17:17:16.736Z,4.68
2022-11-27T17:19:44.384Z,5.30
2022-11-27T17:22:12.224Z,4.47
2022-11-27T17:24:39.897Z,4.95
2022-11-27T17:27:08.921Z,5.07
2022-11-27T17:29:36.560Z,4.72
2022-11-27T17:32:04.633Z,5.13
2022-11-27T17:34:32.404Z,5.07
2022-11-27T17:37:00.140Z,5.28
2022-11-27T17:39:27.851Z,5.00
2022-11-27T17:41:55.539Z,4.60
2022-11-27T17:44:24.631Z,4.75
2022-11-27T17:46:52.293Z,5.35
2022-11-27T17:49:22.043Z,4.63
2022-11-27T17:51:49.904Z,4.18
2022-11-27T17:54:17.648Z,4.45
2022-11-27T17:56:51.035Z,4.75
2022-11-27T17:59:18.802Z,4.40
2022-11-27T18:01:48.435Z,4.47
2022-11-27T18:04:16.163Z,4.35
2022-11-27T18:06:43.845Z,4.65
2022-11-27T18:09:12.433Z,4.53
2022-11-27T18:11:40.646Z,4.15
2022-11-27T18:14:08.465Z,4.20
2022-11-27T18:16:38.409Z,4.63
2022-11-27T18:19:09.290Z,4.68
2022-11-27T18:21:38.164Z,4.05
2022-11-27T18:24:24.433Z,4.82
2022-11-27T18:29:44.624Z,3.90
2022-11-27T18:32:14.005Z,4.43
2022-11-27T18:34:43.354Z,4.38
2022-11-27T18:37:12.076Z,4.55
2022-11-27T18:39:40.586Z,4.35
2022-11-27T18:42:08.802Z,5.72
2022-11-27T18:44:44.382Z,3.95
2022-11-27T18:47:13.935Z,4.25
2022-11-27T18:49:43.885Z,4.93
2022-11-27T18:52:12.163Z,4.63
2022-11-27T18:54:40.015Z,5.13
2022-11-27T18:57:07.787Z,4.53
2022-11-27T18:59:35.705Z,5.20
2022-11-27T19:02:04.657Z,4.20
2022-11-27T19:04:32.501Z,4.00
2022-11-27T19:07:01.526Z,4.32
2022-11-27T19:09:29.220Z,4.35
2022-11-27T19:11:56.926Z,4.35
2022-11-27T19:14:24.665Z,4.53
2022-11-27T19:16:52.915Z,4.47
2022-11-27T19:22:11.779Z,4.60
2022-11-27T19:24:39.491Z,4.80
2022-11-27T19:27:07.184Z,4.10
2022-11-27T19:29:34.845Z,4.13
2022-11-27T19:32:02.906Z,4.95
2022-11-27T19:34:30.801Z,4.60
2022-11-27T19:36:59.011Z,4.25
2022-11-27T19:39:28.825Z,4.55
2022-11-27T19:41:57.839Z,4.22
2022-11-27T19:44:25.785Z,4.82
2022-11-27T19:46:53.578Z,4.97
2022-11-27T19:49:21.468Z,5.10
2022-11-27T19:51:49.790Z,5.95
2022-11-27T19:54:19.267Z,5.15
2022-11-27T19:56:48.330Z,4.85
2022-11-27T19:59:16.073Z,4.00
2022-11-27T20:01:43.824Z,4.85
2022-11-27T20:04:12.178Z,4.07
2022-11-27T20:06:41.049Z,4.97
2022-11-27T20:09:08.779Z,4.28
2022-11-27T20:11:36.634Z,4.72
2022-11-27T20:14:06.648Z,4.30
2022-11-27T20:16:35.665Z,4.38
2022-11-27T20:19:06.067Z,4.35
2022-11-27T20:21:33.979Z,4.43
2022-11-27T20:24:02.877Z,4.55
2022-11-27T20:26:30.951Z,4.10
2022-11-27T20:28:59.156Z,4.45
2022-11-27T20:31:31.048Z,4.30
2022-11-27T20:34:01.592Z,4.15
2022-11-27T20:36:30.193Z,4.03
2022-11-27T20:39:00.180Z,4.45
2022-11-27T20:41:28.492Z,4.30
2022-11-27T20:43:58.570Z,4.65
2022-11-27T20:46:28.341Z,4.38
2022-11-27T20:48:57.055Z,3.90
2022-11-27T20:51:30.116Z,4.00
2022-11-27T20:53:58.988Z,4.00
2022-11-27T20:56:27.028Z,3.97
2022-11-27T20:58:56.038Z,4.00
2022-11-27T21:01:26.433Z,4.22
2022-11-27T21:03:56.665Z,4.20
2022-11-27T21:06:26.475Z,4.57
2022-11-27T21:08:54.505Z,3.85
2022-11-27T21:11:25.200Z,3.92
2022-11-27T21:13:55.851Z,4.90
2022-11-27T21:16:25.018Z,4.13
2022-11-27T21:18:53.402Z,4.20
2022-11-27T21:21:22.455Z,3.83
2022-11-27T21:23:50.411Z,3.58
2022-11-27T21:26:18.944Z,3.83
2022-11-27T21:28:46.814Z,4.10
2022-11-27T21:31:17.321Z,4.00
2022-11-27T21:33:48.021Z,3.58
2022-11-27T21:36:16.361Z,4.13
2022-11-27T21:38:45.817Z,4.10
2022-11-27T21:41:14.042Z,3.67
2022-11-27T21:43:42.129Z,3.50
2022-11-27T21:46:12.690Z,3.65
2022-11-27T21:48:40.721Z,3.63
2022-11-27T21:51:12.545Z,3.97
2022-11-27T21:53:41.073Z,3.72
2022-11-27T21:56:12.949Z,4.35
2022-11-27T21:58:41.126Z,4.10
2022-11-27T22:01:12.533Z,3.95
2022-11-27T22:03:42.765Z,3.88
2022-11-27T22:06:12.800Z,3.85
2022-11-27T22:08:41.994Z,3.72
2022-11-27T22:11:13.229Z,3.90
2022-11-27T22:13:42.137Z,3.85
2022-11-27T22:16:11.581Z,3.88
2022-11-27T22:18:39.474Z,3.63
2022-11-27T22:21:08.895Z,4.00
2022-11-27T22:23:37.061Z,3.60
2022-11-27T22:26:06.252Z,3.65
2022-11-27T22:28:35.811Z,3.03
2022-11-27T22:31:08.857Z,4.00
2022-11-27T22:33:37.098Z,4.13
2022-11-27T22:36:16.047Z,3.97
2022-11-27T22:38:44.048Z,3.65
2022-11-27T22:41:12.743Z,4.20
2022-11-27T22:43:43.015Z,3.70
2022-11-27T22:46:12.937Z,3.75
2022-11-27T22:48:40.830Z,3.78
2022-11-27T22:51:08.488Z,3.70
2022-11-27T22:53:37.374Z,4.32
2022-11-27T22:56:06.696Z,3.90
2022-11-27T22:58:39.854Z,3.65
2022-11-27T23:01:14.729Z,4.10
2022-11-27T23:03:42.434Z,3.75
2022-11-27T23:06:12.777Z,3.78
2022-11-27T23:08:41.368Z,4.55
2022-11-27T23:11:09.597Z,3.55
2022-11-27T23:13:37.873Z,3.70
2022-11-27T23:16:07.454Z,3.60
2022-11-27T23:18:38.416Z,4.20
2022-11-27T23:21:07.488Z,4.38
2022-11-27T23:23:35.257Z,4.03
2022-11-27T23:26:07.119Z,4.00
2022-11-27T23:28:36.522Z,3.75
2022-11-27T23:31:28.169Z,3.47
2022-11-27T23:33:55.623Z,3.58
2022-11-27T23:36:23.414Z,3.65
2022-11-27T23:38:51.211Z,3.88
2022-11-27T23:41:20.676Z,3.30
2022-11-27T23:43:49.242Z,3.60
2022-11-27T23:46:21.430Z,3.70
2022-11-27T23:48:49.697Z,3.83
2022-11-27T23:51:24.543Z,3.50
2022-11-27T23:53:53.161Z,3.85
2022-11-27T23:56:23.190Z,3.65
2022-11-27T23:58:51.081Z,3.53
